sensor_id;sensor_type;location;lat;lon;timestamp;P1;durP1;ratioP1;P2;durP2;ratioP2
31764;SDS011;18338;53.240;8.798;2024-03-23T00:56:23;19.50;;;5.32;;
31764;SDS011;18338;53.240;8.798;2024-03-23T01:01:47;18.38;;;5.40;;
31764;SDS011;18338;53.240;8.798;2024-03-23T01:04:13;18.85;;;6.25;;
31764;SDS011;18338;53.240;8.798;2024-03-23T01:06:38;23.80;;;6.28;;
31764;SDS011;18338;53.240;8.798;2024-03-23T01:09:04;14.10;;;4.65;;
31764;SDS011;18338;53.240;8.798;2024-03-23T01:11:30;19.25;;;5.60;;
31764;SDS011;18338;53.240;8.798;2024-03-23T01:13:55;22.85;;;4.60;;
31764;SDS011;18338;53.240;8.798;2024-03-23T01:16:21;17.92;;;5.22;;
31764;SDS011;18338;53.240;8.798;2024-03-23T01:18:47;19.85;;;5.07;;
31764;SDS011;18338;53.240;8.798;2024-03-23T01:21:13;20.75;;;5.90;;
31764;SDS011;18338;53.240;8.798;2024-03-23T01:23:39;17.45;;;5.18;;
31764;SDS011;18338;53.240;8.798;2024-03-23T01:28:33;19.63;;;5.80;;
31764;SDS011;18338;53.240;8.798;2024-03-23T01:30:58;22.77;;;5.00;;
31764;SDS011;18338;53.240;8.798;2024-03-23T01:33:24;21.60;;;6.20;;
31764;SDS011;18338;53.240;8.798;2024-03-23T01:35:50;19.50;;;7.10;;
31764;SDS011;18338;53.240;8.798;2024-03-23T01:38:16;20.67;;;5.45;;
31764;SDS011;18338;53.240;8.798;2024-03-23T01:40:41;23.77;;;5.50;;
31764;SDS011;18338;53.240;8.798;2024-03-23T01:43:08;22.58;;;5.60;;
31764;SDS011;18338;53.240;8.798;2024-03-23T01:45:34;20.10;;;4.72;;
31764;SDS011;18338;53.240;8.798;2024-03-23T01:48:00;21.75;;;4.97;;
31764;SDS011;18338;53.240;8.798;2024-03-23T01:50:27;23.17;;;5.97;;
31764;SDS011;18338;53.240;8.798;2024-03-23T01:52:53;17.70;;;4.72;;
31764;SDS011;18338;53.240;8.798;2024-03-23T01:55:20;18.92;;;4.72;;
31764;SDS011;18338;53.240;8.798;2024-03-23T01:57:46;17.40;;;4.40;;
31764;SDS011;18338;53.240;8.798;2024-03-23T02:00:12;17.08;;;4.05;;
31764;SDS011;18338;53.240;8.798;2024-03-23T02:02:42;14.70;;;4.20;;
31764;SDS011;18338;53.240;8.798;2024-03-23T02:05:10;19.58;;;4.78;;
31764;SDS011;18338;53.240;8.798;2024-03-23T02:07:38;16.05;;;4.30;;
31764;SDS011;18338;53.240;8.798;2024-03-23T02:10:06;16.73;;;4.00;;
31764;SDS011;18338;53.240;8.798;2024-03-23T02:12:32;16.15;;;4.63;;
31764;SDS011;18338;53.240;8.798;2024-03-23T02:14:59;15.98;;;4.07;;
31764;SDS011;18338;53.240;8.798;2024-03-23T02:17:25;20.73;;;4.07;;
31764;SDS011;18338;53.240;8.798;2024-03-23T02:19:50;13.88;;;4.47;;
31764;SDS011;18338;53.240;8.798;2024-03-23T02:22:16;20.80;;;4.47;;
31764;SDS011;18338;53.240;8.798;2024-03-23T02:24:42;13.63;;;4.60;;
31764;SDS011;18338;53.240;8.798;2024-03-23T02:27:08;20.25;;;4.80;;
31764;SDS011;18338;53.240;8.798;2024-03-23T02:29:34;17.33;;;4.28;;
31764;SDS011;18338;53.240;8.798;2024-03-23T02:32:00;16.40;;;4.57;;
31764;SDS011;18338;53.240;8.798;2024-03-23T02:34:26;17.35;;;4.20;;
31764;SDS011;18338;53.240;8.798;2024-03-23T02:36:52;20.75;;;4.72;;
31764;SDS011;18338;53.240;8.798;2024-03-23T02:39:17;19.25;;;4.70;;
31764;SDS011;18338;53.240;8.798;2024-03-23T02:41:43;17.45;;;5.32;;
31764;SDS011;18338;53.240;8.798;2024-03-23T02:44:09;20.45;;;4.55;;
31764;SDS011;18338;53.240;8.798;2024-03-23T02:46:37;21.85;;;4.55;;
31764;SDS011;18338;53.240;8.798;2024-03-23T02:49:03;17.55;;;5.47;;
31764;SDS011;18338;53.240;8.798;2024-03-23T02:51:30;19.50;;;5.07;;
31764;SDS011;18338;53.240;8.798;2024-03-23T02:53:56;16.65;;;4.15;;
31764;SDS011;18338;53.240;8.798;2024-03-23T02:56:21;17.95;;;4.32;;
31764;SDS011;18338;53.240;8.798;2024-03-23T02:58:47;15.05;;;4.60;;
31764;SDS011;18338;53.240;8.798;2024-03-23T03:01:13;19.27;;;5.72;;
31764;SDS011;18338;53.240;8.798;2024-03-23T03:03:39;19.55;;;4.93;;
31764;SDS011;18338;53.240;8.798;2024-03-23T03:06:05;20.65;;;4.57;;
31764;SDS011;18338;53.240;8.798;2024-03-23T03:08:31;14.70;;;4.07;;
31764;SDS011;18338;53.240;8.798;2024-03-23T03:10:56;18.17;;;4.00;;
31764;SDS011;18338;53.240;8.798;2024-03-23T03:13:22;17.50;;;4.45;;
31764;SDS011;18338;53.240;8.798;2024-03-23T03:15:48;18.88;;;4.32;;
31764;SDS011;18338;53.240;8.798;2024-03-23T03:18:13;18.50;;;4.45;;
31764;SDS011;18338;53.240;8.798;2024-03-23T03:20:39;12.73;;;3.75;;
31764;SDS011;18338;53.240;8.798;2024-03-23T03:23:06;16.30;;;3.58;;
31764;SDS011;18338;53.240;8.798;2024-03-23T03:25:32;16.98;;;4.05;;
31764;SDS011;18338;53.240;8.798;2024-03-23T03:27:58;15.73;;;3.88;;
31764;SDS011;18338;53.240;8.798;2024-03-23T03:30:24;23.85;;;5.00;;
31764;SDS011;18338;53.240;8.798;2024-03-23T03:32:51;18.92;;;4.40;;
31764;SDS011;18338;53.240;8.798;2024-03-23T03:35:18;17.17;;;3.50;;
31764;SDS011;18338;53.240;8.798;2024-03-23T03:37:44;18.02;;;3.65;;
31764;SDS011;18338;53.240;8.798;2024-03-23T03:40:10;16.90;;;4.28;;
31764;SDS011;18338;53.240;8.798;2024-03-23T03:42:36;17.88;;;3.90;;
31764;SDS011;18338;53.240;8.798;2024-03-23T03:45:03;17.10;;;3.70;;
31764;SDS011;18338;53.240;8.798;2024-03-23T03:47:29;14.57;;;4.40;;
31764;SDS011;18338;53.240;8.798;2024-03-23T03:49:55;15.23;;;3.67;;
31764;SDS011;18338;53.240;8.798;2024-03-23T03:52:21;12.77;;;3.42;;
31764;SDS011;18338;53.240;8.798;2024-03-23T03:54:47;13.30;;;2.90;;
31764;SDS011;18338;53.240;8.798;2024-03-23T03:57:13;13.00;;;3.78;;
31764;SDS011;18338;53.240;8.798;2024-03-23T03:59:38;15.40;;;3.95;;
31764;SDS011;18338;53.240;8.798;2024-03-23T04:02:04;12.10;;;3.72;;
31764;SDS011;18338;53.240;8.798;2024-03-23T04:04:30;16.60;;;4.00;;
31764;SDS011;18338;53.240;8.798;2024-03-23T04:06:59;15.85;;;4.50;;
31764;SDS011;18338;53.240;8.798;2024-03-23T04:09:25;19.13;;;3.85;;
31764;SDS011;18338;53.240;8.798;2024-03-23T04:11:51;13.98;;;3.42;;
31764;SDS011;18338;53.240;8.798;2024-03-23T04:14:17;10.77;;;3.25;;
31764;SDS011;18338;53.240;8.798;2024-03-23T04:16:43;18.77;;;3.33;;
31764;SDS011;18338;53.240;8.798;2024-03-23T04:19:08;14.93;;;3.33;;
31764;SDS011;18338;53.240;8.798;2024-03-23T04:21:35;12.27;;;3.60;;
31764;SDS011;18338;53.240;8.798;2024-03-23T04:24:01;19.33;;;4.13;;
31764;SDS011;18338;53.240;8.798;2024-03-23T04:26:27;15.50;;;3.67;;
31764;SDS011;18338;53.240;8.798;2024-03-23T04:28:53;16.00;;;3.53;;
31764;SDS011;18338;53.240;8.798;2024-03-23T04:31:19;22.35;;;4.38;;
31764;SDS011;18338;53.240;8.798;2024-03-23T04:33:44;19.30;;;4.47;;
31764;SDS011;18338;53.240;8.798;2024-03-23T04:36:10;13.35;;;3.92;;
31764;SDS011;18338;53.240;8.798;2024-03-23T04:38:36;15.45;;;3.60;;
31764;SDS011;18338;53.240;8.798;2024-03-23T04:41:02;17.05;;;4.15;;
31764;SDS011;18338;53.240;8.798;2024-03-23T04:43:28;11.73;;;3.70;;
31764;SDS011;18338;53.240;8.798;2024-03-23T04:45:54;14.88;;;3.83;;
31764;SDS011;18338;53.240;8.798;2024-03-23T04:48:22;14.07;;;4.38;;
31764;SDS011;18338;53.240;8.798;2024-03-23T04:50:49;20.27;;;4.40;;
31764;SDS011;18338;53.240;8.798;2024-03-23T04:53:19;16.90;;;4.70;;
31764;SDS011;18338;53.240;8.798;2024-03-23T04:55:45;18.23;;;4.72;;
31764;SDS011;18338;53.240;8.798;2024-03-23T04:58:10;14.88;;;4.05;;
31764;SDS011;18338;53.240;8.798;2024-03-23T05:00:36;16.50;;;3.72;;
31764;SDS011;18338;53.240;8.798;2024-03-23T05:03:02;17.45;;;3.92;;
31764;SDS011;18338;53.240;8.798;2024-03-23T05:05:29;17.38;;;4.13;;
31764;SDS011;18338;53.240;8.798;2024-03-23T05:07:55;15.50;;;4.35;;
31764;SDS011;18338;53.240;8.798;2024-03-23T05:10:21;16.38;;;4.18;;
31764;SDS011;18338;53.240;8.798;2024-03-23T05:12:46;17.27;;;5.25;;
31764;SDS011;18338;53.240;8.798;2024-03-23T05:15:12;16.85;;;4.13;;
31764;SDS011;18338;53.240;8.798;2024-03-23T05:17:38;17.38;;;4.20;;
31764;SDS011;18338;53.240;8.798;2024-03-23T05:20:04;20.88;;;3.90;;
31764;SDS011;18338;53.240;8.798;2024-03-23T05:22:35;19.85;;;4.78;;
31764;SDS011;18338;53.240;8.798;2024-03-23T05:25:01;16.15;;;4.90;;
31764;SDS011;18338;53.240;8.798;2024-03-23T05:27:30;23.88;;;4.97;;
31764;SDS011;18338;53.240;8.798;2024-03-23T05:29:59;15.60;;;4.60;;
31764;SDS011;18338;53.240;8.798;2024-03-23T05:32:24;13.95;;;4.35;;
31764;SDS011;18338;53.240;8.798;2024-03-23T05:34:50;14.93;;;4.35;;
31764;SDS011;18338;53.240;8.798;2024-03-23T05:37:21;14.95;;;4.60;;
31764;SDS011;18338;53.240;8.798;2024-03-23T05:39:47;20.88;;;5.53;;
31764;SDS011;18338;53.240;8.798;2024-03-23T05:42:15;16.35;;;4.80;;
31764;SDS011;18338;53.240;8.798;2024-03-23T05:44:43;18.73;;;5.13;;
31764;SDS011;18338;53.240;8.798;2024-03-23T05:47:11;19.17;;;5.13;;
31764;SDS011;18338;53.240;8.798;2024-03-23T05:49:40;19.77;;;4.95;;
31764;SDS011;18338;53.240;8.798;2024-03-23T05:52:07;20.55;;;5.45;;
31764;SDS011;18338;53.240;8.798;2024-03-23T05:54:34;19.25;;;4.88;;
31764;SDS011;18338;53.240;8.798;2024-03-23T05:57:00;18.98;;;5.43;;
31764;SDS011;18338;53.240;8.798;2024-03-23T05:59:27;24.38;;;4.97;;
31764;SDS011;18338;53.240;8.798;2024-03-23T06:01:53;23.92;;;5.32;;
31764;SDS011;18338;53.240;8.798;2024-03-23T06:04:19;21.63;;;5.38;;
31764;SDS011;18338;53.240;8.798;2024-03-23T06:06:45;19.25;;;5.50;;
31764;SDS011;18338;53.240;8.798;2024-03-23T06:09:11;23.27;;;5.57;;
31764;SDS011;18338;53.240;8.798;2024-03-23T06:11:36;27.88;;;9.45;;
31764;SDS011;18338;53.240;8.798;2024-03-23T06:14:02;35.13;;;16.85;;
31764;SDS011;18338;53.240;8.798;2024-03-23T06:16:28;32.78;;;17.75;;
31764;SDS011;18338;53.240;8.798;2024-03-23T06:18:54;29.17;;;10.35;;
31764;SDS011;18338;53.240;8.798;2024-03-23T06:21:20;24.08;;;6.63;;
31764;SDS011;18338;53.240;8.798;2024-03-23T06:23:46;18.13;;;6.57;;
31764;SDS011;18338;53.240;8.798;2024-03-23T06:26:18;20.80;;;8.13;;
31764;SDS011;18338;53.240;8.798;2024-03-23T06:28:45;25.92;;;11.82;;
31764;SDS011;18338;53.240;8.798;2024-03-23T06:31:11;21.50;;;8.77;;
31764;SDS011;18338;53.240;8.798;2024-03-23T06:33:37;18.60;;;5.28;;
31764;SDS011;18338;53.240;8.798;2024-03-23T06:36:07;23.20;;;8.10;;
31764;SDS011;18338;53.240;8.798;2024-03-23T06:38:35;16.13;;;4.93;;
31764;SDS011;18338;53.240;8.798;2024-03-23T06:41:07;13.27;;;5.03;;
31764;SDS011;18338;53.240;8.798;2024-03-23T06:43:33;20.05;;;5.45;;
31764;SDS011;18338;53.240;8.798;2024-03-23T06:45:59;19.50;;;6.88;;
31764;SDS011;18338;53.240;8.798;2024-03-23T06:48:24;13.95;;;5.25;;
31764;SDS011;18338;53.240;8.798;2024-03-23T06:50:54;25.30;;;5.88;;
31764;SDS011;18338;53.240;8.798;2024-03-23T06:53:21;12.15;;;3.88;;
31764;SDS011;18338;53.240;8.798;2024-03-23T06:55:49;15.25;;;4.30;;
31764;SDS011;18338;53.240;8.798;2024-03-23T06:58:16;22.08;;;5.43;;
31764;SDS011;18338;53.240;8.798;2024-03-23T07:00:42;19.92;;;4.97;;
31764;SDS011;18338;53.240;8.798;2024-03-23T07:03:08;18.40;;;4.60;;
31764;SDS011;18338;53.240;8.798;2024-03-23T07:05:34;19.20;;;4.82;;
31764;SDS011;18338;53.240;8.798;2024-03-23T07:07:59;15.18;;;5.35;;
31764;SDS011;18338;53.240;8.798;2024-03-23T07:10:25;23.48;;;5.35;;
31764;SDS011;18338;53.240;8.798;2024-03-23T07:12:51;17.42;;;5.28;;
31764;SDS011;18338;53.240;8.798;2024-03-23T07:15:17;17.65;;;4.78;;
31764;SDS011;18338;53.240;8.798;2024-03-23T07:17:42;18.75;;;5.57;;
31764;SDS011;18338;53.240;8.798;2024-03-23T07:20:12;17.40;;;4.43;;
31764;SDS011;18338;53.240;8.798;2024-03-23T07:22:38;14.73;;;3.80;;
31764;SDS011;18338;53.240;8.798;2024-03-23T07:25:04;9.90;;;3.75;;
31764;SDS011;18338;53.240;8.798;2024-03-23T07:27:31;11.85;;;3.80;;
31764;SDS011;18338;53.240;8.798;2024-03-23T07:29:57;13.35;;;3.42;;
31764;SDS011;18338;53.240;8.798;2024-03-23T07:32:23;7.68;;;3.28;;
31764;SDS011;18338;53.240;8.798;2024-03-23T07:34:49;11.90;;;3.30;;
31764;SDS011;18338;53.240;8.798;2024-03-23T07:37:14;12.15;;;3.72;;
31764;SDS011;18338;53.240;8.798;2024-03-23T07:39:41;11.45;;;3.40;;
31764;SDS011;18338;53.240;8.798;2024-03-23T07:42:07;11.18;;;3.55;;
31764;SDS011;18338;53.240;8.798;2024-03-23T07:44:32;11.95;;;3.33;;
31764;SDS011;18338;53.240;8.798;2024-03-23T07:46:58;12.95;;;3.42;;
31764;SDS011;18338;53.240;8.798;2024-03-23T07:49:26;17.10;;;3.50;;
31764;SDS011;18338;53.240;8.798;2024-03-23T07:51:52;11.50;;;3.38;;
31764;SDS011;18338;53.240;8.798;2024-03-23T07:54:18;13.45;;;3.60;;
31764;SDS011;18338;53.240;8.798;2024-03-23T07:56:44;12.50;;;3.35;;
31764;SDS011;18338;53.240;8.798;2024-03-23T07:59:09;12.32;;;3.40;;
31764;SDS011;18338;53.240;8.798;2024-03-23T08:01:36;13.10;;;3.65;;
31764;SDS011;18338;53.240;8.798;2024-03-23T08:04:02;11.32;;;3.15;;
31764;SDS011;18338;53.240;8.798;2024-03-23T08:06:27;15.50;;;3.53;;
31764;SDS011;18338;53.240;8.798;2024-03-23T08:08:57;11.27;;;3.13;;
31764;SDS011;18338;53.240;8.798;2024-03-23T08:11:26;9.88;;;2.90;;
31764;SDS011;18338;53.240;8.798;2024-03-23T08:13:53;9.38;;;3.03;;
31764;SDS011;18338;53.240;8.798;2024-03-23T08:16:18;6.68;;;2.65;;
31764;SDS011;18338;53.240;8.798;2024-03-23T08:18:44;9.15;;;2.70;;
31764;SDS011;18338;53.240;8.798;2024-03-23T08:21:10;6.45;;;2.25;;
31764;SDS011;18338;53.240;8.798;2024-03-23T08:23:36;11.25;;;2.97;;
31764;SDS011;18338;53.240;8.798;2024-03-23T08:26:05;8.82;;;2.95;;
31764;SDS011;18338;53.240;8.798;2024-03-23T08:28:32;10.15;;;2.47;;
31764;SDS011;18338;53.240;8.798;2024-03-23T08:31:02;10.95;;;2.90;;
31764;SDS011;18338;53.240;8.798;2024-03-23T08:33:37;14.70;;;3.58;;
31764;SDS011;18338;53.240;8.798;2024-03-23T08:36:05;8.60;;;2.70;;
31764;SDS011;18338;53.240;8.798;2024-03-23T08:38:32;8.25;;;2.75;;
31764;SDS011;18338;53.240;8.798;2024-03-23T08:40:58;8.25;;;2.85;;
31764;SDS011;18338;53.240;8.798;2024-03-23T08:43:25;7.60;;;2.38;;
31764;SDS011;18338;53.240;8.798;2024-03-23T08:45:51;10.98;;;4.63;;
31764;SDS011;18338;53.240;8.798;2024-03-23T08:48:19;8.20;;;2.53;;
31764;SDS011;18338;53.240;8.798;2024-03-23T08:50:58;7.53;;;2.17;;
31764;SDS011;18338;53.240;8.798;2024-03-23T08:53:28;7.35;;;2.42;;
31764;SDS011;18338;53.240;8.798;2024-03-23T08:55:55;7.43;;;2.20;;
31764;SDS011;18338;53.240;8.798;2024-03-23T08:58:22;8.18;;;2.20;;
31764;SDS011;18338;53.240;8.798;2024-03-23T09:00:49;7.70;;;2.00;;
31764;SDS011;18338;53.240;8.798;2024-03-23T09:03:21;7.90;;;1.92;;
31764;SDS011;18338;53.240;8.798;2024-03-23T09:05:50;6.47;;;1.83;;
31764;SDS011;18338;53.240;8.798;2024-03-23T09:08:17;9.32;;;1.95;;
31764;SDS011;18338;53.240;8.798;2024-03-23T09:10:46;7.45;;;1.40;;
31764;SDS011;18338;53.240;8.798;2024-03-23T09:13:13;8.95;;;1.85;;
31764;SDS011;18338;53.240;8.798;2024-03-23T09:16:12;6.57;;;1.42;;
31764;SDS011;18338;53.240;8.798;2024-03-23T09:18:32;4.85;;;1.65;;
31764;SDS011;18338;53.240;8.798;2024-03-23T09:21:00;4.35;;;1.85;;
31764;SDS011;18338;53.240;8.798;2024-03-23T09:23:27;5.97;;;1.63;;
31764;SDS011;18338;53.240;8.798;2024-03-23T09:25:52;5.43;;;1.70;;
31764;SDS011;18338;53.240;8.798;2024-03-23T09:28:18;6.50;;;1.58;;
31764;SDS011;18338;53.240;8.798;2024-03-23T09:30:44;7.13;;;1.67;;
31764;SDS011;18338;53.240;8.798;2024-03-23T09:33:10;8.10;;;1.80;;
31764;SDS011;18338;53.240;8.798;2024-03-23T09:35:40;5.88;;;1.35;;
31764;SDS011;18338;53.240;8.798;2024-03-23T09:38:07;4.07;;;1.67;;
31764;SDS011;18338;53.240;8.798;2024-03-23T09:40:34;4.53;;;1.50;;
31764;SDS011;18338;53.240;8.798;2024-03-23T09:43:06;6.30;;;1.60;;
31764;SDS011;18338;53.240;8.798;2024-03-23T09:45:32;6.50;;;1.40;;
31764;SDS011;18338;53.240;8.798;2024-03-23T09:48:03;4.20;;;1.20;;
31764;SDS011;18338;53.240;8.798;2024-03-23T09:50:29;4.70;;;1.60;;
31764;SDS011;18338;53.240;8.798;2024-03-23T09:52:55;5.63;;;1.60;;
31764;SDS011;18338;53.240;8.798;2024-03-23T09:55:21;4.60;;;1.35;;
31764;SDS011;18338;53.240;8.798;2024-03-23T09:57:46;3.83;;;0.88;;
31764;SDS011;18338;53.240;8.798;2024-03-23T10:00:12;4.03;;;1.55;;
31764;SDS011;18338;53.240;8.798;2024-03-23T10:02:38;5.30;;;1.40;;
31764;SDS011;18338;53.240;8.798;2024-03-23T10:05:04;4.68;;;1.40;;
31764;SDS011;18338;53.240;8.798;2024-03-23T10:07:44;4.03;;;1.00;;
31764;SDS011;18338;53.240;8.798;2024-03-23T10:10:10;3.65;;;1.40;;
31764;SDS011;18338;53.240;8.798;2024-03-23T10:12:39;5.47;;;1.30;;
31764;SDS011;18338;53.240;8.798;2024-03-23T10:15:17;4.80;;;1.60;;
31764;SDS011;18338;53.240;8.798;2024-03-23T10:17:45;4.85;;;1.45;;
31764;SDS011;18338;53.240;8.798;2024-03-23T10:20:11;4.97;;;1.25;;
31764;SDS011;18338;53.240;8.798;2024-03-23T10:22:37;3.97;;;1.48;;
31764;SDS011;18338;53.240;8.798;2024-03-23T10:25:10;4.57;;;1.17;;
31764;SDS011;18338;53.240;8.798;2024-03-23T10:27:36;4.63;;;1.67;;
31764;SDS011;18338;53.240;8.798;2024-03-23T10:30:09;4.07;;;1.60;;
31764;SDS011;18338;53.240;8.798;2024-03-23T10:32:36;7.57;;;1.60;;
31764;SDS011;18338;53.240;8.798;2024-03-23T10:35:21;4.15;;;1.77;;
31764;SDS011;18338;53.240;8.798;2024-03-23T10:37:47;5.63;;;1.20;;
31764;SDS011;18338;53.240;8.798;2024-03-23T10:40:16;5.57;;;2.78;;
31764;SDS011;18338;53.240;8.798;2024-03-23T10:42:43;11.63;;;5.60;;
31764;SDS011;18338;53.240;8.798;2024-03-23T10:45:09;9.02;;;3.28;;
31764;SDS011;18338;53.240;8.798;2024-03-23T10:47:36;6.03;;;3.38;;
31764;SDS011;18338;53.240;8.798;2024-03-23T10:50:06;13.95;;;5.82;;
31764;SDS011;18338;53.240;8.798;2024-03-23T10:52:32;3.17;;;1.33;;
31764;SDS011;18338;53.240;8.798;2024-03-23T10:54:58;3.88;;;1.55;;
31764;SDS011;18338;53.240;8.798;2024-03-23T10:57:29;4.70;;;1.40;;
31764;SDS011;18338;53.240;8.798;2024-03-23T11:00:03;3.65;;;1.38;;
31764;SDS011;18338;53.240;8.798;2024-03-23T11:02:29;6.97;;;1.83;;
31764;SDS011;18338;53.240;8.798;2024-03-23T11:04:55;4.20;;;1.58;;
31764;SDS011;18338;53.240;8.798;2024-03-23T11:09:50;7.10;;;1.70;;
31764;SDS011;18338;53.240;8.798;2024-03-23T11:17:29;9.38;;;2.28;;
31764;SDS011;18338;53.240;8.798;2024-03-23T11:19:56;5.00;;;2.20;;
31764;SDS011;18338;53.240;8.798;2024-03-23T11:25:13;5.93;;;1.48;;
31764;SDS011;18338;53.240;8.798;2024-03-23T11:27:43;2.67;;;1.30;;
31764;SDS011;18338;53.240;8.798;2024-03-23T11:30:11;4.20;;;1.35;;
31764;SDS011;18338;53.240;8.798;2024-03-23T11:32:37;2.88;;;1.13;;
31764;SDS011;18338;53.240;8.798;2024-03-23T11:35:04;6.38;;;1.30;;
31764;SDS011;18338;53.240;8.798;2024-03-23T11:37:30;7.43;;;1.83;;
31764;SDS011;18338;53.240;8.798;2024-03-23T11:39:56;5.10;;;1.25;;
31764;SDS011;18338;53.240;8.798;2024-03-23T11:42:22;4.97;;;1.30;;
31764;SDS011;18338;53.240;8.798;2024-03-23T11:44:47;6.25;;;2.05;;
31764;SDS011;18338;53.240;8.798;2024-03-23T11:47:13;4.80;;;1.48;;
31764;SDS011;18338;53.240;8.798;2024-03-23T11:49:39;2.90;;;1.17;;
31764;SDS011;18338;53.240;8.798;2024-03-23T11:52:07;4.65;;;1.33;;
31764;SDS011;18338;53.240;8.798;2024-03-23T11:54:33;3.78;;;1.52;;
31764;SDS011;18338;53.240;8.798;2024-03-23T11:57:08;5.47;;;1.50;;
31764;SDS011;18338;53.240;8.798;2024-03-23T11:59:34;4.40;;;1.33;;
31764;SDS011;18338;53.240;8.798;2024-03-23T12:02:09;4.53;;;1.48;;
31764;SDS011;18338;53.240;8.798;2024-03-23T12:04:40;5.85;;;2.13;;
31764;SDS011;18338;53.240;8.798;2024-03-23T12:09:40;2.05;;;0.73;;
31764;SDS011;18338;53.240;8.798;2024-03-23T12:12:18;2.53;;;0.70;;
31764;SDS011;18338;53.240;8.798;2024-03-23T12:14:44;0.98;;;0.45;;
31764;SDS011;18338;53.240;8.798;2024-03-23T12:17:25;1.52;;;0.77;;
31764;SDS011;18338;53.240;8.798;2024-03-23T12:19:51;0.40;;;0.40;;
31764;SDS011;18338;53.240;8.798;2024-03-23T12:22:21;1.85;;;0.50;;
31764;SDS011;18338;53.240;8.798;2024-03-23T12:24:47;1.50;;;0.55;;
31764;SDS011;18338;53.240;8.798;2024-03-23T12:27:14;1.70;;;0.60;;
31764;SDS011;18338;53.240;8.798;2024-03-23T12:29:42;1.00;;;0.55;;
31764;SDS011;18338;53.240;8.798;2024-03-23T12:32:12;2.03;;;0.90;;
31764;SDS011;18338;53.240;8.798;2024-03-23T12:34:38;1.90;;;1.00;;
31764;SDS011;18338;53.240;8.798;2024-03-23T12:37:04;3.72;;;0.90;;
31764;SDS011;18338;53.240;8.798;2024-03-23T12:39:34;2.47;;;0.60;;
31764;SDS011;18338;53.240;8.798;2024-03-23T12:42:01;1.52;;;0.60;;
31764;SDS011;18338;53.240;8.798;2024-03-23T12:44:28;4.55;;;0.77;;
31764;SDS011;18338;53.240;8.798;2024-03-23T12:46:54;1.85;;;0.57;;
31764;SDS011;18338;53.240;8.798;2024-03-23T12:49:20;1.50;;;0.90;;
31764;SDS011;18338;53.240;8.798;2024-03-23T12:51:48;2.42;;;0.93;;
31764;SDS011;18338;53.240;8.798;2024-03-23T12:54:19;0.70;;;0.57;;
31764;SDS011;18338;53.240;8.798;2024-03-23T12:56:45;0.68;;;0.40;;
31764;SDS011;18338;53.240;8.798;2024-03-23T12:59:11;1.17;;;0.32;;
31764;SDS011;18338;53.240;8.798;2024-03-23T13:01:38;0.88;;;0.40;;
31764;SDS011;18338;53.240;8.798;2024-03-23T13:04:04;1.55;;;0.60;;
31764;SDS011;18338;53.240;8.798;2024-03-23T13:06:30;1.35;;;0.40;;
31764;SDS011;18338;53.240;8.798;2024-03-23T13:09:00;3.58;;;0.50;;
31764;SDS011;18338;53.240;8.798;2024-03-23T13:11:27;2.47;;;0.70;;
31764;SDS011;18338;53.240;8.798;2024-03-23T13:16:29;4.20;;;0.90;;
31764;SDS011;18338;53.240;8.798;2024-03-23T13:18:55;1.85;;;0.93;;
31764;SDS011;18338;53.240;8.798;2024-03-23T13:21:20;1.40;;;0.70;;
31764;SDS011;18338;53.240;8.798;2024-03-23T13:23:47;3.72;;;0.80;;
31764;SDS011;18338;53.240;8.798;2024-03-23T13:26:13;1.23;;;0.60;;
31764;SDS011;18338;53.240;8.798;2024-03-23T13:28:39;0.95;;;0.43;;
31764;SDS011;18338;53.240;8.798;2024-03-23T13:31:05;1.45;;;0.50;;
31764;SDS011;18338;53.240;8.798;2024-03-23T13:33:30;2.92;;;0.60;;
31764;SDS011;18338;53.240;8.798;2024-03-23T13:35:59;1.80;;;0.80;;
31764;SDS011;18338;53.240;8.798;2024-03-23T13:38:25;2.08;;;0.40;;
31764;SDS011;18338;53.240;8.798;2024-03-23T13:40:55;2.40;;;0.70;;
31764;SDS011;18338;53.240;8.798;2024-03-23T13:43:22;2.45;;;0.80;;
31764;SDS011;18338;53.240;8.798;2024-03-23T13:45:50;1.85;;;0.50;;
31764;SDS011;18338;53.240;8.798;2024-03-23T13:48:19;0.50;;;0.40;;
31764;SDS011;18338;53.240;8.798;2024-03-23T13:50:45;1.10;;;0.55;;
31764;SDS011;18338;53.240;8.798;2024-03-23T13:53:16;1.30;;;0.40;;
31764;SDS011;18338;53.240;8.798;2024-03-23T13:56:15;1.02;;;0.50;;
31764;SDS011;18338;53.240;8.798;2024-03-23T13:58:34;1.77;;;0.50;;
31764;SDS011;18338;53.240;8.798;2024-03-23T14:01:00;2.20;;;0.70;;
31764;SDS011;18338;53.240;8.798;2024-03-23T14:03:26;0.85;;;0.60;;
31764;SDS011;18338;53.240;8.798;2024-03-23T14:05:54;1.48;;;0.80;;
31764;SDS011;18338;53.240;8.798;2024-03-23T14:08:23;1.83;;;0.40;;
31764;SDS011;18338;53.240;8.798;2024-03-23T14:10:49;2.80;;;0.70;;
31764;SDS011;18338;53.240;8.798;2024-03-23T14:13:16;2.42;;;0.60;;
31764;SDS011;18338;53.240;8.798;2024-03-23T14:15:43;2.53;;;0.98;;
31764;SDS011;18338;53.240;8.798;2024-03-23T14:18:09;2.08;;;0.73;;
31764;SDS011;18338;53.240;8.798;2024-03-23T14:20:35;3.45;;;1.00;;
31764;SDS011;18338;53.240;8.798;2024-03-23T14:23:01;1.90;;;0.93;;
31764;SDS011;18338;53.240;8.798;2024-03-23T14:25:26;3.28;;;1.20;;
31764;SDS011;18338;53.240;8.798;2024-03-23T14:27:54;3.03;;;0.90;;
31764;SDS011;18338;53.240;8.798;2024-03-23T14:30:20;3.28;;;0.70;;
31764;SDS011;18338;53.240;8.798;2024-03-23T14:32:46;2.50;;;0.80;;
31764;SDS011;18338;53.240;8.798;2024-03-23T14:35:11;4.28;;;1.08;;
31764;SDS011;18338;53.240;8.798;2024-03-23T14:37:37;3.65;;;1.33;;
31764;SDS011;18338;53.240;8.798;2024-03-23T14:40:03;4.05;;;1.35;;
31764;SDS011;18338;53.240;8.798;2024-03-23T14:42:29;6.30;;;1.77;;
31764;SDS011;18338;53.240;8.798;2024-03-23T14:44:57;6.75;;;3.58;;
31764;SDS011;18338;53.240;8.798;2024-03-23T14:47:23;24.30;;;14.32;;
31764;SDS011;18338;53.240;8.798;2024-03-23T14:49:49;7.50;;;5.22;;
31764;SDS011;18338;53.240;8.798;2024-03-23T14:52:16;4.72;;;2.47;;
31764;SDS011;18338;53.240;8.798;2024-03-23T14:54:43;2.65;;;0.98;;
31764;SDS011;18338;53.240;8.798;2024-03-23T14:57:09;2.28;;;1.38;;
31764;SDS011;18338;53.240;8.798;2024-03-23T14:59:36;3.75;;;0.68;;
31764;SDS011;18338;53.240;8.798;2024-03-23T15:02:06;3.22;;;0.65;;
31764;SDS011;18338;53.240;8.798;2024-03-23T15:04:32;1.33;;;0.35;;
31764;SDS011;18338;53.240;8.798;2024-03-23T15:06:58;2.08;;;0.75;;
31764;SDS011;18338;53.240;8.798;2024-03-23T15:09:24;2.13;;;0.63;;
31764;SDS011;18338;53.240;8.798;2024-03-23T15:11:50;1.88;;;0.70;;
31764;SDS011;18338;53.240;8.798;2024-03-23T15:14:16;1.13;;;0.45;;
31764;SDS011;18338;53.240;8.798;2024-03-23T15:16:41;2.35;;;0.80;;
31764;SDS011;18338;53.240;8.798;2024-03-23T15:19:08;1.92;;;0.60;;
31764;SDS011;18338;53.240;8.798;2024-03-23T15:21:34;2.45;;;0.68;;
31764;SDS011;18338;53.240;8.798;2024-03-23T15:23:59;2.10;;;0.75;;
31764;SDS011;18338;53.240;8.798;2024-03-23T15:26:25;2.65;;;0.50;;
31764;SDS011;18338;53.240;8.798;2024-03-23T15:28:51;3.75;;;1.42;;
31764;SDS011;18338;53.240;8.798;2024-03-23T15:31:23;2.05;;;0.70;;
31764;SDS011;18338;53.240;8.798;2024-03-23T15:33:59;6.55;;;2.45;;
31764;SDS011;18338;53.240;8.798;2024-03-23T15:36:31;1.92;;;0.77;;
31764;SDS011;18338;53.240;8.798;2024-03-23T15:39:31;1.27;;;0.70;;
31764;SDS011;18338;53.240;8.798;2024-03-23T15:41:57;2.70;;;0.82;;
31764;SDS011;18338;53.240;8.798;2024-03-23T15:44:23;1.77;;;0.80;;
31764;SDS011;18338;53.240;8.798;2024-03-23T15:46:49;2.58;;;0.60;;
31764;SDS011;18338;53.240;8.798;2024-03-23T15:49:15;1.98;;;0.88;;
31764;SDS011;18338;53.240;8.798;2024-03-23T15:51:41;3.30;;;0.90;;
31764;SDS011;18338;53.240;8.798;2024-03-23T15:54:09;2.30;;;0.70;;
31764;SDS011;18338;53.240;8.798;2024-03-23T15:56:35;1.88;;;0.60;;